createdAt,value
2018-03-04T00:01:03.098Z,86.90
2018-03-04T00:03:32.509Z,87.00
2018-03-04T00:06:01.788Z,86.80
2018-03-04T00:08:31.093Z,86.60
2018-03-04T00:11:00.427Z,86.60
2018-03-04T00:13:30.907Z,87.00
2018-03-04T00:16:00.172Z,87.10
2018-03-04T00:18:29.463Z,87.10
2018-03-04T00:20:58.778Z,86.90
2018-03-04T00:23:28.052Z,87.10
2018-03-04T00:25:57.392Z,86.70
2018-03-04T00:28:26.640Z,86.50
2018-03-04T00:30:55.987Z,85.20
2018-03-04T00:33:25.280Z,85.40
2018-03-04T00:35:54.588Z,86.00
2018-03-04T00:38:24.621Z,86.20
2018-03-04T00:40:53.935Z,86.20
2018-03-04T00:43:23.975Z,86.60
2018-03-04T00:45:53.288Z,86.70
2018-03-04T00:48:22.607Z,88.00
2018-03-04T00:50:51.960Z,88.10
2018-03-04T00:53:21.236Z,88.20
2018-03-04T00:55:50.985Z,88.80
2018-03-04T00:58:20.262Z,88.60
2018-03-04T01:00:49.537Z,88.60
2018-03-04T01:03:19.626Z,88.90
2018-03-04T01:05:48.894Z,89.30
2018-03-04T01:08:18.209Z,89.10
2018-03-04T01:10:48.250Z,89.00
2018-03-04T01:13:17.582Z,89.00
2018-03-04T01:15:46.882Z,89.20
2018-03-04T01:18:16.608Z,89.30
2018-03-04T01:20:45.909Z,89.10
2018-03-04T01:23:15.217Z,89.10
2018-03-04T01:25:44.565Z,89.30
2018-03-04T01:28:13.891Z,89.00
2018-03-04T01:30:43.244Z,89.10
2018-03-04T01:33:12.541Z,89.80
2018-03-04T01:35:41.847Z,89.40
2018-03-04T01:38:11.407Z,89.10
2018-03-04T01:40:40.678Z,89.30
2018-03-04T01:43:09.967Z,89.80
2018-03-04T01:45:39.342Z,90.10
2018-03-04T01:48:08.676Z,90.20
2018-03-04T01:50:37.987Z,91.10
2018-03-04T01:53:07.308Z,91.00
2018-03-04T01:55:36.627Z,91.70
2018-03-04T01:58:05.937Z,91.40
2018-03-04T02:00:35.287Z,91.50
2018-03-04T02:03:04.570Z,91.50
2018-03-04T02:05:33.883Z,92.50
2018-03-04T02:08:03.172Z,91.50
2018-03-04T02:10:32.493Z,91.60
2018-03-04T02:13:01.795Z,92.20
2018-03-04T02:15:31.107Z,92.50
2018-03-04T02:18:00.403Z,92.80
2018-03-04T02:20:29.760Z,92.90
2018-03-04T02:22:59.052Z,92.90
2018-03-04T02:25:29.284Z,92.70
2018-03-04T02:27:58.660Z,92.50
2018-03-04T02:30:27.968Z,92.60
2018-03-04T02:32:57.233Z,92.60
2018-03-04T02:35:26.530Z,93.60
2018-03-04T02:37:55.833Z,91.30
2018-03-04T02:40:25.141Z,91.20
2018-03-04T02:42:54.472Z,92.50
2018-03-04T02:45:23.763Z,92.70
2018-03-04T02:47:53.070Z,92.00
2018-03-04T02:50:22.403Z,92.60
2018-03-04T02:52:51.743Z,91.90
2018-03-04T02:55:21.067Z,91.00
2018-03-04T02:57:50.342Z,92.50
2018-03-04T03:00:19.643Z,92.40
2018-03-04T03:02:48.923Z,93.00
2018-03-04T03:05:19.119Z,93.40
2018-03-04T03:07:48.416Z,93.50
2018-03-04T03:10:17.795Z,93.60
2018-03-04T03:12:47.825Z,94.60
2018-03-04T03:15:17.892Z,94.20
2018-03-04T03:17:47.184Z,94.30
2018-03-04T03:20:16.500Z,94.80
2018-03-04T03:22:45.767Z,94.50
2018-03-04T03:25:15.061Z,93.80
2018-03-04T03:27:44.336Z,93.70
2018-03-04T03:30:13.661Z,94.10
2018-03-04T03:32:42.944Z,94.60
2018-03-04T03:35:12.288Z,94.40
2018-03-04T03:37:41.555Z,94.20
2018-03-04T03:40:10.916Z,94.30
2018-03-04T03:42:40.231Z,95.70
2018-03-04T03:45:09.574Z,96.70
2018-03-04T03:47:38.911Z,96.70
2018-03-04T03:50:08.219Z,97.50
2018-03-04T03:52:38.278Z,98.00
2018-03-04T03:55:07.601Z,98.00
2018-03-04T03:57:36.959Z,98.40
2018-03-04T04:00:06.602Z,98.60
2018-03-04T04:02:36.006Z,99.30
2018-03-04T04:05:05.300Z,99.30
2018-03-04T04:07:34.596Z,99.50
2018-03-04T04:10:03.938Z,99.30
2018-03-04T04:12:34.204Z,99.90
2018-03-04T04:15:04.271Z,99.90
2018-03-04T04:17:33.580Z,99.90
2018-03-04T04:20:02.876Z,99.90
2018-03-04T04:22:32.541Z,99.90
2018-03-04T04:25:02.197Z,99.90
2018-03-04T04:27:31.532Z,99.90
2018-03-04T04:30:00.891Z,99.90
2018-03-04T04:32:30.289Z,99.90
2018-03-04T04:34:59.621Z,99.90
2018-03-04T04:37:28.912Z,99.90
2018-03-04T04:39:58.176Z,99.90
2018-03-04T04:42:27.783Z,99.90
2018-03-04T04:44:57.052Z,99.90
2018-03-04T04:47:26.333Z,99.90
2018-03-04T04:49:55.606Z,99.90
2018-03-04T04:52:24.891Z,99.90
2018-03-04T04:54:54.562Z,99.90
2018-03-04T04:57:23.864Z,99.90
2018-03-04T04:59:53.128Z,99.90
2018-03-04T05:02:22.440Z,99.90
2018-03-04T05:04:51.868Z,99.90
2018-03-04T05:07:21.143Z,99.80
2018-03-04T05:09:50.722Z,99.80
2018-03-04T05:12:20.819Z,99.90
2018-03-04T05:14:50.536Z,99.90
2018-03-04T05:17:19.838Z,99.90
2018-03-04T05:19:49.295Z,99.90
2018-03-04T05:22:19.290Z,99.90
2018-03-04T05:24:48.568Z,98.90
2018-03-04T05:27:17.976Z,96.70
2018-03-04T05:29:47.441Z,95.70
2018-03-04T05:32:16.739Z,96.10
2018-03-04T05:34:46.039Z,97.10
2018-03-04T05:37:15.651Z,98.60
2018-03-04T05:39:44.976Z,99.90
2018-03-04T05:42:14.294Z,99.90
2018-03-04T05:44:43.596Z,99.90
2018-03-04T05:47:12.928Z,99.90
2018-03-04T05:49:42.202Z,99.90
2018-03-04T05:52:11.557Z,99.90
2018-03-04T05:54:40.823Z,99.90
2018-03-04T05:57:10.996Z,99.90
2018-03-04T05:59:40.295Z,99.90
2018-03-04T06:02:09.611Z,99.90
2018-03-04T06:04:38.979Z,99.90
2018-03-04T06:07:08.319Z,99.90
2018-03-04T06:09:37.624Z,99.90
2018-03-04T06:12:06.961Z,98.70
2018-03-04T06:14:39.767Z,98.00
2018-03-04T06:17:09.082Z,96.90
2018-03-04T06:19:39.188Z,96.70
2018-03-04T06:22:08.505Z,96.50
2018-03-04T06:24:37.876Z,97.30
2018-03-04T06:27:07.976Z,99.90
2018-03-04T06:29:37.318Z,99.90
2018-03-04T06:32:06.638Z,99.90
2018-03-04T06:34:35.912Z,99.90
2018-03-04T06:37:05.584Z,99.90
2018-03-04T06:39:35.027Z,99.90
2018-03-04T06:42:04.307Z,99.90
2018-03-04T06:44:33.603Z,99.90
2018-03-04T06:47:03.675Z,99.90
2018-03-04T06:49:39.108Z,99.90
2018-03-04T06:52:08.415Z,99.90
2018-03-04T06:54:37.694Z,99.90
2018-03-04T06:57:07.277Z,99.90
2018-03-04T06:59:36.542Z,99.90
2018-03-04T07:02:05.814Z,99.90
2018-03-04T07:04:35.143Z,99.90
2018-03-04T07:07:05.332Z,99.90
2018-03-04T07:09:35.057Z,99.90
2018-03-04T07:14:38.881Z,99.90
2018-03-04T07:17:08.361Z,99.90
2018-03-04T07:19:39.592Z,99.90
2018-03-04T07:22:08.922Z,99.90
2018-03-04T07:24:38.275Z,99.90
2018-03-04T07:27:07.919Z,99.90
2018-03-04T07:29:37.291Z,99.90
2018-03-04T07:32:06.874Z,99.90
2018-03-04T07:34:36.175Z,99.90
2018-03-04T07:37:05.708Z,99.90
2018-03-04T07:39:35.949Z,99.90
2018-03-04T07:42:05.312Z,99.70
2018-03-04T07:44:34.606Z,99.90
2018-03-04T07:47:04.634Z,99.70
2018-03-04T07:49:34.710Z,99.60
2018-03-04T07:52:04.076Z,99.60
2018-03-04T07:54:33.528Z,97.50
2018-03-04T07:57:02.823Z,97.40
2018-03-04T07:59:32.159Z,98.10
2018-03-04T08:02:01.404Z,98.10
2018-03-04T08:04:30.781Z,98.30
2018-03-04T08:07:00.008Z,97.80
2018-03-04T08:09:29.309Z,97.60
2018-03-04T08:11:58.611Z,98.10
2018-03-04T08:14:27.915Z,98.50
2018-03-04T08:16:59.466Z,97.90
2018-03-04T08:19:29.504Z,97.30
2018-03-04T08:21:59.557Z,96.50
2018-03-04T08:24:40.138Z,96.50
2018-03-04T08:27:27.123Z,96.50
2018-03-04T08:29:57.211Z,95.30
2018-03-04T08:32:28.463Z,95.30
2018-03-04T08:34:57.773Z,94.70
2018-03-04T08:37:27.037Z,93.70
2018-03-04T08:39:59.112Z,93.80
2018-03-04T08:42:28.412Z,93.90
2018-03-04T08:44:57.874Z,93.90
2018-03-04T08:47:27.268Z,94.50
2018-03-04T08:49:57.338Z,93.10
2018-03-04T08:52:27.281Z,93.10
2018-03-04T08:54:56.599Z,92.20
2018-03-04T08:57:26.185Z,91.40
2018-03-04T08:59:55.442Z,90.90
2018-03-04T09:02:24.742Z,90.30
2018-03-04T09:04:54.095Z,90.40
2018-03-04T09:07:23.382Z,90.80
2018-03-04T09:09:52.634Z,90.00
2018-03-04T09:12:21.953Z,89.50
2018-03-04T09:14:51.266Z,89.50
2018-03-04T09:17:20.532Z,88.00
2018-03-04T09:19:49.900Z,88.00
2018-03-04T09:22:20.818Z,86.90
2018-03-04T09:24:50.927Z,84.30
2018-03-04T09:27:20.259Z,84.30
2018-03-04T09:29:49.558Z,84.30
2018-03-04T09:32:19.069Z,84.50
2018-03-04T09:34:48.331Z,84.80
2018-03-04T09:37:18.663Z,84.90
2018-03-04T09:39:55.691Z,85.20
2018-03-04T09:42:25.057Z,85.70
2018-03-04T09:44:55.252Z,85.80
2018-03-04T09:47:25.419Z,85.50
2018-03-04T09:49:54.715Z,86.70
2018-03-04T09:52:23.995Z,85.40
2018-03-04T09:54:53.434Z,84.70
2018-03-04T09:57:24.032Z,84.60
2018-03-04T09:59:54.544Z,83.60
2018-03-04T10:02:23.929Z,83.40
2018-03-04T10:04:53.294Z,83.50
2018-03-04T10:07:23.956Z,83.70
2018-03-04T10:09:53.204Z,82.80
2018-03-04T10:12:22.475Z,81.60
2018-03-04T10:14:51.813Z,80.90
2018-03-04T10:17:21.533Z,80.80
2018-03-04T10:19:58.181Z,78.50
2018-03-04T10:22:29.852Z,77.40
2018-03-04T10:24:59.150Z,78.50
2018-03-04T10:27:28.444Z,76.40
2018-03-04T10:30:00.281Z,67.50
2018-03-04T10:32:29.786Z,67.20
2018-03-04T10:34:59.376Z,62.20
2018-03-04T10:37:28.667Z,61.60
2018-03-04T10:39:58.203Z,59.80
2018-03-04T10:42:27.829Z,53.80
2018-03-04T10:44:57.096Z,55.30
2018-03-04T10:47:26.348Z,57.70
2018-03-04T10:50:04.588Z,61.10
2018-03-04T10:52:37.257Z,61.40
2018-03-04T10:55:07.532Z,63.90
2018-03-04T10:57:40.153Z,63.70
2018-03-04T11:00:09.622Z,64.40
2018-03-04T11:02:41.692Z,63.50
2018-03-04T11:05:11.508Z,60.50
2018-03-04T11:07:40.822Z,58.50
2018-03-04T11:10:10.475Z,57.20
2018-03-04T11:12:39.956Z,57.80
2018-03-04T11:15:09.373Z,57.10
2018-03-04T11:17:38.747Z,55.50
2018-03-04T11:22:48.419Z,53.20
2018-03-04T11:25:17.715Z,52.40
2018-03-04T11:27:46.993Z,52.20
2018-03-04T11:30:16.326Z,51.90
2018-03-04T11:32:45.627Z,54.40
2018-03-04T11:35:15.175Z,52.80
2018-03-04T11:37:44.492Z,54.10
2018-03-04T11:40:13.767Z,52.70
2018-03-04T11:45:23.984Z,53.70
2018-03-04T11:47:53.308Z,53.30
2018-03-04T11:50:22.572Z,53.10
2018-03-04T11:52:52.356Z,53.60
2018-03-04T12:01:23.063Z,53.10
2018-03-04T12:03:52.796Z,51.50
2018-03-04T12:06:22.139Z,50.80
2018-03-04T12:08:53.049Z,50.40
2018-03-04T12:11:22.316Z,52.00
2018-03-04T12:13:56.186Z,50.50
2018-03-04T12:16:25.551Z,50.50
2018-03-04T12:18:55.124Z,50.90
2018-03-04T12:21:24.527Z,48.80
2018-03-04T12:23:53.834Z,49.90
2018-03-04T12:26:23.139Z,50.30
2018-03-04T12:28:53.181Z,48.30
2018-03-04T12:31:22.807Z,49.50
2018-03-04T12:33:52.080Z,49.10
2018-03-04T12:36:23.172Z,48.30
2018-03-04T12:38:52.431Z,48.20
2018-03-04T12:41:21.740Z,49.40
2018-03-04T12:43:51.036Z,49.30
2018-03-04T12:46:20.382Z,49.90
2018-03-04T12:48:50.546Z,49.40
2018-03-04T12:51:19.865Z,49.30
2018-03-04T12:53:49.137Z,50.20
2018-03-04T12:56:19.226Z,52.40
2018-03-04T12:58:48.508Z,52.30
2018-03-04T13:01:17.825Z,53.70
2018-03-04T13:03:47.108Z,53.50
2018-03-04T13:06:16.390Z,54.30
2018-03-04T13:08:45.691Z,53.30
2018-03-04T13:11:15.006Z,53.30
2018-03-04T13:13:44.674Z,52.90
2018-03-04T13:16:14.057Z,52.90
2018-03-04T13:18:43.331Z,52.30
2018-03-04T13:21:12.647Z,54.10
2018-03-04T13:23:41.957Z,54.60
2018-03-04T13:26:11.720Z,54.90
2018-03-04T13:28:41.090Z,55.00
2018-03-04T13:31:10.500Z,54.70
2018-03-04T13:33:39.830Z,54.40
2018-03-04T13:36:09.151Z,54.60
2018-03-04T13:38:38.450Z,54.60
2018-03-04T13:41:07.785Z,53.70
2018-03-04T13:43:37.096Z,52.70
2018-03-04T13:46:06.399Z,52.20
2018-03-04T13:48:35.667Z,51.40
2018-03-04T13:51:05.002Z,52.00
2018-03-04T13:53:34.291Z,51.40
2018-03-04T13:56:03.585Z,51.80
2018-03-04T13:58:33.647Z,51.30
2018-03-04T14:01:02.951Z,52.00
2018-03-04T14:03:32.628Z,51.50
2018-03-04T14:06:01.936Z,48.80
2018-03-04T14:08:31.256Z,48.40
2018-03-04T14:11:00.555Z,46.80
2018-03-04T14:13:29.833Z,47.20
2018-03-04T14:15:59.527Z,47.50
2018-03-04T14:18:29.559Z,47.50
2018-03-04T14:20:58.871Z,47.50
2018-03-04T14:23:28.212Z,48.10
2018-03-04T14:25:57.547Z,47.70
2018-03-04T14:28:26.863Z,48.60
2018-03-04T14:30:56.457Z,49.30
2018-03-04T14:33:25.752Z,48.70
2018-03-04T14:35:55.015Z,49.10
2018-03-04T14:38:24.689Z,48.90
2018-03-04T14:40:53.952Z,49.10
2018-03-04T14:43:23.240Z,50.50
2018-03-04T14:45:52.543Z,50.20
2018-03-04T14:48:21.811Z,49.10
2018-03-04T14:50:51.144Z,49.10
2018-03-04T14:53:20.445Z,49.60
2018-03-04T14:55:49.787Z,51.00
2018-03-04T14:58:21.032Z,50.10
2018-03-04T15:00:50.626Z,50.20
2018-03-04T15:03:19.931Z,50.60
2018-03-04T15:05:49.203Z,50.00
2018-03-04T15:08:18.564Z,50.20
2018-03-04T15:10:48.192Z,50.20
2018-03-04T15:13:19.460Z,50.20
2018-03-04T15:15:48.893Z,50.30
2018-03-04T15:18:18.292Z,50.40
2018-03-04T15:20:48.328Z,50.80
2018-03-04T15:23:17.639Z,50.80
2018-03-04T15:25:46.983Z,50.90
2018-03-04T15:28:16.275Z,50.70
2018-03-04T15:30:45.600Z,51.10
2018-03-04T15:33:14.860Z,51.60
2018-03-04T15:35:44.548Z,51.40
2018-03-04T15:38:13.914Z,51.50
2018-03-04T15:40:43.465Z,52.00
2018-03-04T15:43:13.765Z,53.10
2018-03-04T15:45:44.027Z,53.30
2018-03-04T15:48:13.331Z,53.70
2018-03-04T15:50:43.643Z,53.40
2018-03-04T15:53:13.035Z,53.40
2018-03-04T15:55:44.916Z,54.10
2018-03-04T15:58:14.241Z,53.70
2018-03-04T16:00:44.520Z,53.80
2018-03-04T16:03:15.579Z,54.00
2018-03-04T16:05:44.870Z,54.00
2018-03-04T16:08:14.145Z,54.90
2018-03-04T16:10:43.551Z,55.10
2018-03-04T16:13:12.879Z,55.70
2018-03-04T16:15:42.546Z,55.10
2018-03-04T16:18:12.177Z,55.40
2018-03-04T16:20:41.505Z,56.00
2018-03-04T16:23:10.828Z,56.00
2018-03-04T16:25:40.143Z,56.40
2018-03-04T16:28:09.399Z,56.00
2018-03-04T16:30:38.704Z,56.20
2018-03-04T16:33:08.088Z,56.30
2018-03-04T16:35:37.383Z,56.40
2018-03-04T16:38:06.658Z,57.00
2018-03-04T16:40:35.988Z,57.30
2018-03-04T16:43:05.247Z,57.70
2018-03-04T16:45:34.547Z,57.40
2018-03-04T16:48:04.832Z,57.70
2018-03-04T16:50:34.118Z,58.00
2018-03-04T16:53:03.390Z,57.80
2018-03-04T16:55:32.719Z,58.20
2018-03-04T16:58:01.963Z,58.70
2018-03-04T17:00:31.713Z,59.20
2018-03-04T17:03:01.009Z,59.80
2018-03-04T17:05:30.849Z,60.10
2018-03-04T17:08:00.255Z,60.10
2018-03-04T17:10:29.540Z,59.80
2018-03-04T17:12:59.349Z,60.30
2018-03-04T17:15:30.031Z,60.60
2018-03-04T17:18:00.026Z,60.80
2018-03-04T17:20:30.244Z,61.00
2018-03-04T17:22:59.527Z,61.30
2018-03-04T17:25:32.707Z,62.10
2018-03-04T17:28:02.312Z,62.40
2018-03-04T17:30:31.563Z,63.00
2018-03-04T17:33:00.847Z,63.70
2018-03-04T17:35:30.151Z,64.30
2018-03-04T17:38:00.216Z,65.40
2018-03-04T17:40:29.586Z,65.30
2018-03-04T17:42:58.995Z,65.70
2018-03-04T17:45:28.269Z,66.30
2018-03-04T17:47:57.540Z,66.70
2018-03-04T17:50:28.884Z,67.20
2018-03-04T17:52:58.212Z,67.20
2018-03-04T17:55:27.490Z,68.00
2018-03-04T17:58:00.088Z,68.10
2018-03-04T18:00:29.363Z,68.00
2018-03-04T18:02:59.409Z,68.60
2018-03-04T18:05:30.444Z,68.60
2018-03-04T18:08:00.168Z,68.70
2018-03-04T18:10:30.438Z,68.90
2018-03-04T18:12:59.718Z,68.70
2018-03-04T18:15:34.800Z,69.50
2018-03-04T18:18:05.135Z,69.50
2018-03-04T18:20:38.990Z,65.10
2018-03-04T18:23:08.315Z,59.50
2018-03-04T18:25:37.908Z,56.10
2018-03-04T18:28:07.957Z,55.30
2018-03-04T18:30:38.172Z,55.80
2018-03-04T18:33:07.497Z,55.30
2018-03-04T18:35:36.792Z,56.30
2018-03-04T18:38:06.182Z,57.00
2018-03-04T18:40:37.383Z,57.80
2018-03-04T18:43:07.507Z,58.60
2018-03-04T18:45:38.328Z,59.90
2018-03-04T18:48:08.528Z,60.80
2018-03-04T18:50:38.191Z,61.40
2018-03-04T18:53:07.468Z,62.00
2018-03-04T18:55:37.925Z,63.20
2018-03-04T18:58:07.576Z,63.40
2018-03-04T19:00:36.872Z,64.10
2018-03-04T19:03:06.138Z,64.30
2018-03-04T19:05:35.492Z,64.50
2018-03-04T19:08:05.454Z,64.70
2018-03-04T19:10:37.757Z,65.20
2018-03-04T19:13:08.062Z,65.90
2018-03-04T19:15:37.921Z,66.70
2018-03-04T19:18:07.368Z,66.90
2018-03-04T19:20:39.059Z,67.90
2018-03-04T19:23:08.760Z,67.20
2018-03-04T19:25:38.024Z,67.80
2018-03-04T19:28:08.217Z,68.00
2018-03-04T19:30:38.500Z,67.70
2018-03-04T19:33:09.550Z,67.40
2018-03-04T19:35:38.955Z,67.40
2018-03-04T19:38:08.343Z,68.10
2018-03-04T19:40:40.951Z,67.80
2018-03-04T19:43:10.303Z,68.00
2018-03-04T19:45:40.465Z,68.90
2018-03-04T19:48:09.781Z,69.10
2018-03-04T19:50:39.062Z,69.50
2018-03-04T19:53:09.520Z,70.00
2018-03-04T19:55:38.897Z,70.50
2018-03-04T19:58:08.206Z,69.70
2018-03-04T20:00:38.241Z,69.50
2018-03-04T20:03:07.648Z,69.80
2018-03-04T20:05:36.987Z,70.00
2018-03-04T20:08:09.406Z,69.50
2018-03-04T20:10:39.188Z,69.80
2018-03-04T20:13:09.343Z,69.60
2018-03-04T20:15:38.995Z,69.60
2018-03-04T20:18:09.238Z,68.70
2018-03-04T20:20:39.686Z,69.00
2018-03-04T20:23:09.221Z,69.40
2018-03-04T20:25:40.236Z,69.20
2018-03-04T20:28:09.754Z,68.80
2018-03-04T20:30:39.032Z,68.90
2018-03-04T20:33:10.019Z,68.40
2018-03-04T20:35:39.367Z,68.70
2018-03-04T20:38:09.699Z,69.10
2018-03-04T20:40:39.003Z,69.20
2018-03-04T20:43:08.832Z,69.40
2018-03-04T20:45:39.048Z,68.20
2018-03-04T20:51:11.528Z,67.20
2018-03-04T20:53:40.912Z,67.40
2018-03-04T20:56:10.227Z,67.20
2018-03-04T20:58:39.938Z,66.30
2018-03-04T21:01:09.222Z,66.70
2018-03-04T21:03:40.823Z,67.10
2018-03-04T21:06:10.372Z,67.30
2018-03-04T21:08:39.627Z,67.60
2018-03-04T21:11:10.646Z,67.90
2018-03-04T21:13:40.168Z,68.10
2018-03-04T21:16:09.461Z,68.60
2018-03-04T21:18:38.747Z,68.20
2018-03-04T21:21:08.473Z,68.00
2018-03-04T21:23:38.026Z,68.60
2018-03-04T21:26:08.397Z,68.50
2018-03-04T21:28:37.772Z,68.90
2018-03-04T21:31:08.838Z,68.90
2018-03-04T21:33:39.183Z,69.10
2018-03-04T21:36:10.145Z,68.90
2018-03-04T21:38:39.730Z,68.70
2018-03-04T21:41:08.992Z,67.90
2018-03-04T21:43:38.324Z,67.50
2018-03-04T21:46:08.732Z,68.00
2018-03-04T21:48:38.577Z,68.20
2018-03-04T21:51:09.248Z,68.10
2018-03-04T21:53:38.712Z,68.90
2018-03-04T21:56:09.085Z,68.10
2018-03-04T21:58:40.243Z,67.80
2018-03-04T22:01:09.525Z,68.30
2018-03-04T22:03:46.504Z,68.20
2018-03-04T22:06:21.843Z,68.10
2018-03-04T22:08:56.783Z,68.90
2018-03-04T22:11:31.992Z,69.10
2018-03-04T22:14:03.252Z,70.00
2018-03-04T22:16:34.683Z,71.50
2018-03-04T22:19:04.163Z,71.80
2018-03-04T22:21:34.981Z,72.40
2018-03-04T22:24:08.052Z,72.80
2018-03-04T22:26:38.511Z,73.10
2018-03-04T22:29:08.634Z,74.70
2018-03-04T22:31:38.139Z,75.20
2018-03-04T22:34:09.695Z,76.10
2018-03-04T22:36:39.015Z,76.20
2018-03-04T22:39:10.191Z,76.00
2018-03-04T22:41:39.521Z,76.70
2018-03-04T22:44:08.805Z,77.50
2018-03-04T22:46:40.111Z,78.60
2018-03-04T22:49:09.883Z,80.00
2018-03-04T22:51:39.347Z,82.40
2018-03-04T22:54:09.789Z,82.60
2018-03-04T22:56:39.468Z,84.50
2018-03-04T22:59:08.837Z,86.30
2018-03-04T23:07:35.174Z,88.00
2018-03-04T23:10:09.687Z,89.00
2018-03-04T23:12:39.538Z,92.30
2018-03-04T23:18:30.869Z,92.40
2018-03-04T23:24:38.539Z,96.20
2018-03-04T23:30:25.814Z,99.30
2018-03-04T23:33:11.005Z,97.60
2018-03-04T23:35:40.497Z,98.40
2018-03-04T23:38:10.965Z,97.10
2018-03-04T23:40:40.589Z,97.70
2018-03-04T23:43:10.896Z,99.90
2018-03-04T23:46:10.211Z,99.90
2018-03-04T23:48:39.600Z,98.00
2018-03-04T23:51:15.281Z,95.70
2018-03-04T23:53:44.760Z,94.50
2018-03-04T23:59:36.135Z,94.70
